CheckWX is a tool to help pilots better visualize weather data.  It is not intended as a substitute for an official pre-flight weather briefing.

15:31:04 UTC

KVBT METAR
Bentonville Municipal / Louise M Thaden Field Airport
Bentonville, Arkansas, USA
Current

35 mins ago

KVBT 171456Z AUTO 16006KT 10SM CLR 11/07 A3010 RMK AO2 SLP198 T01110072 58002
Observed
Oct-17 @ 14:56 UTC
Wind
  • 160° at 6 KTS
Visibility
10 SM
Flight Rules
VFR
Cloud Levels
  • Clear skies
Temperature
11°C / 52°F
Dewpoint
C / 45°F
Humidity
77%
Altimeter
30.1" Hg
Pressure
1019.32 hPa
Previous

2 hours ago

KVBT 171356Z AUTO 15004KT 10SM CLR 08/06 A3011 RMK AO2 SLP203 T00780061
Observed
Oct-17 @ 13:56 UTC
Wind
  • 150° at 4 KTS
Visibility
10 SM
Flight Rules
VFR
Cloud Levels
  • Clear skies
Temperature
C / 46°F
Dewpoint
C / 43°F
Humidity
87%
Altimeter
30.11" Hg
Pressure
1019.62 hPa
Previous

3 hours ago

KVBT 171256Z AUTO 00000KT 10SM CLR 06/04 A3010 RMK AO2 SLP201 T00560044
Observed
Oct-17 @ 12:56 UTC
Visibility
10 SM
Flight Rules
VFR
Cloud Levels
  • Clear skies
Temperature
C / 43°F
Dewpoint
C / 39°F
Humidity
87%
Altimeter
30.1" Hg
Pressure
1019.32 hPa